Time;durP1;ratioP1;P1;durP2;ratioP2;P2;SDS_P1;SDS_P2;PMS_P1;PMS_P2;Temp;Humidity;BMP_temperature;BMP_pressure;BME280_temperature;BME280_humidity;BME280_pressure;Samples;Min_cycle;Max_cycle;Signal;HPM_P1;HPM_P2
2023/01/01 00:01:48;;;;;;;14.03;10.45;;;;;;;6.97;100.00;100110.00;1724393;80;21304;-54
2023/01/01 00:04:14;;;;;;;14.07;11.73;;;;;;;7.00;100.00;100112.56;1732616;80;21530;-54
2023/01/01 00:06:42;;;;;;;12.75;11.25;;;;;;;7.01;100.00;100107.64;1734763;80;21946;-53
2023/01/01 00:11:54;;;;;;;16.52;10.85;;;;;;;7.06;100.00;100107.06;1734522;80;21074;-54
2023/01/01 00:14:21;;;;;;;15.03;11.03;;;;;;;7.08;100.00;100102.52;1699547;82;21057;-53
2023/01/01 00:16:47;;;;;;;14.85;10.65;;;;;;;7.09;100.00;100101.15;1740796;80;21101;-53
2023/01/01 00:19:14;;;;;;;12.60;10.50;;;;;;;7.10;100.00;100106.92;1729763;80;21804;-52
2023/01/01 00:21:40;;;;;;;11.00;9.88;;;;;;;7.12;100.00;100101.07;1744554;80;21676;-52
2023/01/01 00:24:07;;;;;;;12.95;10.08;;;;;;;7.14;100.00;100093.88;1730351;80;21473;-53
2023/01/01 00:26:34;;;;;;;14.93;9.93;;;;;;;7.18;100.00;100091.97;1742862;80;21090;-53
2023/01/01 00:29:01;;;;;;;12.63;9.53;;;;;;;7.22;100.00;100103.03;1742639;80;21659;-55
2023/01/01 00:31:27;;;;;;;13.10;9.95;;;;;;;7.27;100.00;100102.42;1735989;80;23081;-53
2023/01/01 00:33:54;;;;;;;14.63;10.80;;;;;;;7.33;100.00;100106.70;1737225;80;21574;-56
2023/01/01 00:36:22;;;;;;;12.23;10.75;;;;;;;7.35;100.00;100101.73;1682848;83;21128;-52
2023/01/01 00:38:49;;;;;;;12.90;11.10;;;;;;;7.38;100.00;100094.08;1732915;80;21026;-52
2023/01/01 00:41:16;;;;;;;11.95;10.48;;;;;;;7.39;100.00;100094.50;1736950;80;21080;-54
2023/01/01 00:43:42;;;;;;;13.65;10.20;;;;;;;7.39;100.00;100084.66;1733713;80;23672;-54
2023/01/01 00:46:09;;;;;;;12.33;10.95;;;;;;;7.38;100.00;100089.59;1735439;80;21534;-56
2023/01/01 00:48:35;;;;;;;11.00;9.90;;;;;;;7.39;100.00;100094.50;1737904;80;21038;-53
2023/01/01 00:51:02;;;;;;;13.00;9.58;;;;;;;7.41;100.00;100098.86;1733992;80;21081;-53
2023/01/01 00:53:28;;;;;;;13.90;10.78;;;;;;;7.43;100.00;100093.46;1732547;80;21393;-52
2023/01/01 00:55:55;;;;;;;11.78;9.80;;;;;;;7.46;100.00;100094.72;1732993;80;21934;-52
2023/01/01 00:58:23;;;;;;;10.23;9.23;;;;;;;7.51;100.00;100090.09;1733894;80;21523;-55
2023/01/01 01:00:51;;;;;;;11.50;9.15;;;;;;;7.55;100.00;100082.39;1718153;80;21622;-54
2023/01/01 01:03:29;;;;;;;13.83;10.10;;;;;;;7.58;100.00;100083.16;1718054;80;21105;-53
2023/01/01 01:06:04;;;;;;;10.93;9.78;;;;;;;7.62;100.00;100080.39;1739352;80;21074;-56
2023/01/01 01:08:32;;;;;;;10.40;9.05;;;;;;;7.62;100.00;100076.38;1729519;80;22013;-56
2023/01/01 01:11:09;;;;;;;13.43;9.45;;;;;;;7.63;100.00;100071.44;1725121;80;21118;-55
2023/01/01 01:13:36;;;;;;;10.85;8.68;;;;;;;7.63;100.00;100068.75;1699509;82;21038;-56
2023/01/01 01:16:18;;;;;;;9.98;8.95;;;;;;;7.60;100.00;100073.28;1703149;82;21040;-53
2023/01/01 01:18:44;;;;;;;11.53;9.08;;;;;;;7.64;100.00;100078.55;1735938;80;21070;-54
2023/01/01 01:21:17;;;;;;;11.60;8.63;;;;;;;7.64;100.00;100074.07;1729516;80;21900;-54
2023/01/01 01:23:44;;;;;;;9.50;7.50;;;;;;;7.66;100.00;100078.02;1735584;80;21081;-55
2023/01/01 01:26:16;;;;;;;8.83;7.87;;;;;;;7.68;100.00;100083.75;1733916;80;21093;-54
2023/01/01 01:28:42;;;;;;;9.78;8.78;;;;;;;7.71;100.00;100082.33;1733505;80;21117;-53
2023/01/01 01:31:09;;;;;;;9.68;8.73;;;;;;;7.75;100.00;100081.75;1732262;80;21094;-54
2023/01/01 01:33:35;;;;;;;14.10;9.28;;;;;;;7.77;100.00;100082.13;1728813;80;21796;-54
2023/01/01 01:36:03;;;;;;;9.83;8.80;;;;;;;7.81;100.00;100078.44;1731881;80;21575;-56
2023/01/01 01:38:30;;;;;;;9.58;8.63;;;;;;;7.83;100.00;100072.54;1734731;80;21051;-54
2023/01/01 01:40:56;;;;;;;8.98;7.95;;;;;;;7.85;100.00;100068.02;1724325;80;21651;-55
2023/01/01 01:43:34;;;;;;;10.30;7.80;;;;;;;7.87;100.00;100071.53;1733673;80;21030;-53
2023/01/01 01:46:05;;;;;;;9.43;6.58;;;;;;;7.89;100.00;100076.84;1734208;80;21820;-57
2023/01/01 01:48:36;;;;;;;7.10;6.42;;;;;;;7.92;100.00;100078.06;1732919;80;21062;-53
2023/01/01 01:51:04;;;;;;;7.72;6.97;;;;;;;7.95;100.00;100080.66;1695628;82;21006;-56
2023/01/01 01:53:34;;;;;;;7.83;6.40;;;;;;;7.97;100.00;100068.97;1737719;80;21598;-53
2023/01/01 01:56:02;;;;;;;10.65;8.13;;;;;;;8.01;100.00;100065.71;1732888;80;21050;-54
2023/01/01 01:58:30;;;;;;;8.98;6.95;;;;;;;8.05;100.00;100067.84;1729550;80;21938;-54
2023/01/01 02:00:56;;;;;;;7.22;6.53;;;;;;;8.06;100.00;100068.26;1730850;80;21090;-54
2023/01/01 02:03:34;;;;;;;8.20;7.35;;;;;;;8.07;100.00;100068.67;1728389;80;21752;-54
2023/01/01 02:06:00;;;;;;;8.68;5.80;;;;;;;8.08;100.00;100070.43;1727432;80;21041;-52
2023/01/01 02:08:27;;;;;;;7.58;6.35;;;;;;;8.08;100.00;100065.07;1731304;80;21113;-54
2023/01/01 02:10:53;;;;;;;7.05;5.75;;;;;;;8.09;100.00;100063.65;1729789;80;21791;-53
2023/01/01 02:13:22;;;;;;;5.70;5.30;;;;;;;8.11;100.00;100058.24;1727188;80;21048;-53
2023/01/01 02:16:08;;;;;;;5.28;4.75;;;;;;;8.13;100.00;100055.05;1720516;80;21038;-54
2023/01/01 02:19:03;;;;;;;8.05;6.00;;;;;;;8.15;100.00;100045.16;1729877;80;21480;-53
2023/01/01 02:21:53;;;;;;;7.08;6.22;;;;;;;8.18;100.00;100053.08;1719491;80;21068;-54
2023/01/01 02:24:54;;;;;;;8.58;7.00;;;;;;;8.19;100.00;100060.20;1726396;80;21964;-58
2023/01/01 02:27:55;;;;;;;7.70;5.75;;;;;;;8.19;100.00;100051.70;1724771;80;21061;-54
2023/01/01 02:30:22;;;;;;;7.65;5.90;;;;;;;8.20;100.00;100051.23;1732498;80;21031;-53
2023/01/01 02:32:55;;;;;;;7.85;6.10;;;;;;;8.20;100.00;100051.23;1726436;80;21054;-51
2023/01/01 02:35:33;;;;;;;7.80;6.40;;;;;;;8.21;100.00;100056.55;1718823;80;21559;-53
2023/01/01 02:38:04;;;;;;;7.15;5.47;;;;;;;8.23;100.00;100069.91;1721239;80;22521;-54
2023/01/01 02:40:31;;;;;;;5.72;5.22;;;;;;;8.25;100.00;100062.20;1723607;80;21097;-55
2023/01/01 02:42:58;;;;;;;7.78;5.17;;;;;;;8.27;100.00;100054.11;1739197;80;21633;-56
2023/01/01 02:45:25;;;;;;;6.50;5.90;;;;;;;8.29;100.00;100055.83;1718858;80;22131;-53
2023/01/01 02:47:51;;;;;;;6.42;5.80;;;;;;;8.31;100.00;100059.38;1730389;80;21069;-51
2023/01/01 02:50:21;;;;;;;6.00;5.47;;;;;;;8.32;100.00;100059.79;1729561;80;21929;-55
2023/01/01 02:53:15;;;;;;;9.25;5.83;;;;;;;8.33;100.00;100064.69;1733016;80;21010;-51
2023/01/01 02:56:07;;;;;;;5.33;4.85;;;;;;;8.33;100.00;100060.20;1732096;80;21030;-53
2023/01/01 03:01:55;;;;;;;5.47;4.35;;;;;;;8.34;100.00;100057.03;1730714;80;21548;-54
2023/01/01 03:04:28;;;;;;;8.18;4.50;;;;;;;8.37;100.00;100047.55;1732065;80;21251;-53
2023/01/01 03:06:59;;;;;;;4.92;4.37;;;;;;;8.40;100.00;100042.55;1731014;80;21009;-55
2023/01/01 03:09:34;;;;;;;4.90;4.40;;;;;;;8.42;100.00;100049.59;1740392;80;21465;-52
2023/01/01 03:12:09;;;;;;;5.45;4.78;;;;;;;8.43;100.00;100052.69;1733975;80;21065;-54
2023/01/01 03:14:55;;;;;;;5.10;4.70;;;;;;;8.45;100.00;100052.18;1739172;80;21124;-53
2023/01/01 03:17:43;;;;;;;9.85;5.28;;;;;;;8.45;100.00;100058.88;1749717;80;22307;-52
2023/01/01 03:20:20;;;;;;;8.45;4.35;;;;;;;8.45;100.00;100056.20;1721391;81;21073;-52
2023/01/01 03:22:46;;;;;;;4.75;4.20;;;;;;;8.45;100.00;100060.23;1707656;81;21532;-54
2023/01/01 03:25:16;;;;;;;5.85;4.12;;;;;;;8.46;100.00;100049.91;1709316;81;21005;-52
2023/01/01 03:27:49;;;;;;;4.87;4.47;;;;;;;8.48;100.00;100045.84;1703299;81;21580;-52
2023/01/01 03:30:18;;;;;;;5.12;4.62;;;;;;;8.50;100.00;100054.72;1705058;81;22051;-53
2023/01/01 03:33:09;;;;;;;4.97;3.95;;;;;;;8.53;100.00;100050.56;1718661;81;21066;-52
2023/01/01 03:35:41;;;;;;;4.95;4.55;;;;;;;8.55;100.00;100042.88;1712809;81;21552;-52
2023/01/01 03:38:16;;;;;;;5.65;4.20;;;;;;;8.57;100.00;100058.94;1709535;81;21550;-54
2023/01/01 03:40:42;;;;;;;7.92;4.75;;;;;;;8.57;100.00;100063.84;1711217;81;21095;-52
2023/01/01 03:43:13;;;;;;;6.12;3.98;;;;;;;8.57;100.00;100058.94;1688482;83;21854;-53
2023/01/01 03:45:42;;;;;;;4.85;3.95;;;;;;;8.57;100.00;100052.23;1701890;82;21080;-54
2023/01/01 03:48:10;;;;;;;6.33;3.40;;;;;;;8.56;100.00;100050.01;1705278;82;21128;-52
2023/01/01 03:51:03;;;;;;;5.08;4.00;;;;;;;8.59;100.00;100050.37;1705361;82;21073;-53
2023/01/01 03:53:41;;;;;;;5.00;3.58;;;;;;;8.59;100.00;100052.56;1703986;82;21526;-52
2023/01/01 03:56:19;;;;;;;3.55;3.25;;;;;;;8.61;100.00;100052.52;1703352;82;21927;-53
2023/01/01 03:58:53;;;;;;;3.70;3.27;;;;;;;8.64;100.00;100059.12;1702963;82;21125;-53
2023/01/01 04:01:30;;;;;;;3.58;2.72;;;;;;;8.67;100.00;100056.34;1705164;82;21090;-52
2023/01/01 04:03:56;;;;;;;3.22;2.92;;;;;;;8.69;100.00;100066.06;1701502;82;21066;-53
2023/01/01 04:06:24;;;;;;;3.27;2.67;;;;;;;8.70;100.00;100073.19;1707662;82;21074;-53
2023/01/01 04:08:52;;;;;;;4.25;3.87;;;;;;;8.72;100.00;100073.14;1702064;82;21939;-53
2023/01/01 04:14:06;;;;;;;3.00;2.80;;;;;;;8.74;100.00;100072.63;1706629;82;21067;-52
2023/01/01 04:16:33;;;;;;;3.27;3.02;;;;;;;8.72;100.00;100067.31;1707309;82;21061;-53
2023/01/01 04:18:59;;;;;;;3.50;3.25;;;;;;;8.73;100.00;100073.56;1699327;83;21967;-53
2023/01/01 04:21:25;;;;;;;5.28;2.35;;;;;;;8.73;100.00;100067.73;1704950;82;21959;-53
2023/01/01 04:23:52;;;;;;;3.58;3.17;;;;;;;8.73;100.00;100062.36;1706051;83;21124;-54
2023/01/01 04:26:18;;;;;;;3.22;2.25;;;;;;;8.76;100.00;100057.36;1705412;82;21088;-53
2023/01/01 04:28:45;;;;;;;2.95;2.62;;;;;;;8.78;100.00;100055.94;1704684;82;21526;-56
2023/01/01 04:31:12;;;;;;;2.87;2.67;;;;;;;8.81;100.00;100067.45;1704497;82;21142;-54
2023/01/01 04:33:38;;;;;;;3.33;3.10;;;;;;;8.84;100.00;100062.45;1706822;83;21827;-53
2023/01/01 04:38:38;;;;;;;3.00;2.80;;;;;;;8.89;100.00;100034.48;1871547;75;22417;-54
2023/01/01 04:41:05;;;;;;;2.80;2.58;;;;;;;8.89;100.00;100063.14;1835836;76;21053;-52
2023/01/01 04:43:32;;;;;;;2.62;2.35;;;;;;;8.89;100.00;100061.34;1842969;76;21837;-53
2023/01/01 04:46:02;;;;;;;3.20;1.98;;;;;;;8.89;100.00;100059.99;1833165;77;21075;-55
2023/01/01 04:48:30;;;;;;;2.25;2.05;;;;;;;8.89;100.00;100076.09;1835561;76;20987;-57
2023/01/01 04:50:59;;;;;;;2.33;1.98;;;;;;;8.90;100.00;100076.52;1828523;76;21077;-56
2023/01/01 04:53:28;;;;;;;3.00;2.62;;;;;;;8.93;100.00;100074.20;1831904;76;21025;-53
2023/01/01 04:55:55;;;;;;;2.47;1.70;;;;;;;8.96;100.00;100085.67;1831735;76;21922;-54
2023/01/01 04:58:21;;;;;;;2.17;1.70;;;;;;;8.99;100.00;100079.33;1835217;76;21296;-52
2023/01/01 05:00:49;;;;;;;3.67;2.55;;;;;;;9.01;100.00;100081.04;1838873;76;21333;-54
2023/01/01 05:03:16;;;;;;;1.62;1.50;;;;;;;9.00;100.00;100084.65;1836713;76;21597;-54
2023/01/01 05:05:43;;;;;;;1.50;1.40;;;;;;;9.00;100.00;100072.56;1836878;76;21084;-53
2023/01/01 05:08:09;;;;;;;1.80;1.65;;;;;;;9.00;100.00;100067.66;1767592;79;21919;-54
2023/01/01 05:10:36;;;;;;;1.95;1.75;;;;;;;8.97;100.00;100068.64;1798008;78;21569;-54
2023/01/01 05:13:08;;;;;;;2.92;1.82;;;;;;;8.97;100.00;100072.67;1764454;80;21139;-55
2023/01/01 05:15:36;;;;;;;2.10;1.32;;;;;;;8.97;100.00;100079.84;1789952;78;21079;-54
2023/01/01 05:18:03;;;;;;;2.95;1.40;;;;;;;8.96;100.00;100081.65;1762430;78;21029;-55
2023/01/01 05:20:29;;;;;;;1.80;1.45;;;;;;;8.97;100.00;100082.53;1755927;79;21886;-57
2023/01/01 05:22:56;;;;;;;3.52;1.72;;;;;;;8.98;100.00;100097.25;1759613;80;21351;-54
2023/01/01 05:25:23;;;;;;;1.82;1.72;;;;;;;8.99;100.00;100088.73;1756259;79;21652;-56
2023/01/01 05:27:50;;;;;;;2.42;1.42;;;;;;;9.00;100.00;100084.65;1757816;79;21101;-53
2023/01/01 05:30:16;;;;;;;3.00;1.10;;;;;;;8.99;100.00;100084.70;1765676;79;21044;-54
2023/01/01 05:32:43;;;;;;;3.50;1.47;;;;;;;8.96;100.00;100081.65;1761186;79;21767;-55
2023/01/01 05:35:09;;;;;;;1.67;1.57;;;;;;;8.95;100.00;100090.63;1753622;79;21503;-53
2023/01/01 05:37:36;;;;;;;1.55;1.12;;;;;;;8.93;100.00;100091.15;1756985;79;21044;-53
2023/01/01 05:40:04;;;;;;;2.60;1.35;;;;;;;8.93;100.00;100091.64;1753106;80;21051;-54
2023/01/01 05:42:30;;;;;;;1.35;1.10;;;;;;;8.93;100.00;100088.96;1755922;80;21072;-54
2023/01/01 05:44:56;;;;;;;2.77;1.50;;;;;;;8.94;100.00;100083.51;1754965;80;21749;-56
2023/01/01 05:47:23;;;;;;;2.15;1.30;;;;;;;8.94;100.00;100078.14;1752114;80;21045;-55
2023/01/01 05:49:50;;;;;;;1.87;1.45;;;;;;;8.95;100.00;100083.92;1751093;80;21039;-56
2023/01/01 05:52:17;;;;;;;1.95;1.37;;;;;;;8.95;100.00;100083.92;1748269;80;21049;-56
2023/01/01 05:54:43;;;;;;;3.85;1.90;;;;;;;8.94;100.00;100088.88;1754037;80;21086;-55
2023/01/01 05:57:10;;;;;;;3.72;1.55;;;;;;;8.93;100.00;100087.13;1751201;80;22524;-54
2023/01/01 05:59:36;;;;;;;2.80;1.30;;;;;;;8.94;100.00;100085.31;1753620;80;21518;-53
2023/01/01 06:02:02;;;;;;;2.05;1.32;;;;;;;8.93;100.00;100084.94;1751206;81;21037;-54
2023/01/01 06:04:29;;;;;;;5.25;1.65;;;;;;;8.91;100.00;100097.06;1749326;81;21282;-53
2023/01/01 06:06:55;;;;;;;1.82;1.60;;;;;;;8.90;100.00;100105.17;1748597;80;21039;-55
2023/01/01 06:09:22;;;;;;;1.65;1.42;;;;;;;8.89;100.00;100111.00;1750772;80;21952;-54
2023/01/01 06:11:49;;;;;;;1.62;1.25;;;;;;;8.90;100.00;100122.16;1754098;80;21061;-54
2023/01/01 06:14:15;;;;;;;2.08;1.47;;;;;;;8.91;100.00;100114.98;1749759;80;21014;-54
2023/01/01 06:16:42;;;;;;;4.55;1.60;;;;;;;8.91;100.00;100114.52;1748189;80;21086;-53
2023/01/01 06:19:08;;;;;;;2.15;1.30;;;;;;;8.91;100.00;100121.22;1753459;80;21141;-53
2023/01/01 06:21:35;;;;;;;3.00;1.20;;;;;;;8.94;100.00;100127.81;1746674;80;21905;-54
2023/01/01 06:24:02;;;;;;;3.47;1.35;;;;;;;8.97;100.00;100119.66;1753582;80;21582;-54
2023/01/01 06:26:31;;;;;;;1.60;1.10;;;;;;;9.00;100.00;100117.33;1750333;80;21074;-56
2023/01/01 06:28:58;;;;;;;4.12;1.45;;;;;;;9.02;100.00;100119.47;1752557;80;21322;-54
2023/01/01 06:31:24;;;;;;;2.37;1.55;;;;;;;9.03;100.00;100120.77;1753023;80;21518;-56
2023/01/01 06:33:51;;;;;;;3.47;1.60;;;;;;;9.05;100.00;100110.86;1749161;80;21840;-53
2023/01/01 06:36:19;;;;;;;1.37;1.25;;;;;;;9.05;100.00;100110.86;1743561;80;21038;-56
2023/01/01 06:38:50;;;;;;;1.77;1.55;;;;;;;9.06;100.00;100104.56;1755613;79;21024;-54
2023/01/01 06:41:19;;;;;;;1.85;1.62;;;;;;;9.07;100.00;100106.31;1751517;80;21338;-55
2023/01/01 06:43:45;;;;;;;2.17;1.30;;;;;;;9.07;100.00;100110.34;1753154;80;21094;-53
2023/01/01 06:46:22;;;;;;;1.72;0.90;;;;;;;9.09;100.00;100112.98;1755412;80;21548;-53
2023/01/01 06:48:51;;;;;;;2.95;1.20;;;;;;;9.11;100.00;100114.65;1749085;80;21527;-55
2023/01/01 06:51:21;;;;;;;3.50;1.40;;;;;;;9.14;100.00;100119.51;1756148;80;21014;-55
2023/01/01 06:53:48;;;;;;;2.08;1.10;;;;;;;9.16;100.00;100124.36;1752507;80;21034;-53
2023/01/01 06:56:15;;;;;;;4.22;1.35;;;;;;;9.17;100.00;100122.09;1749283;80;21097;-55
2023/01/01 06:58:42;;;;;;;1.90;1.47;;;;;;;9.16;100.00;100125.24;1751079;81;21825;-53
2023/01/01 07:01:11;;;;;;;2.67;1.12;;;;;;;9.15;100.00;100119.92;1752491;80;21055;-52
2023/01/01 07:03:39;;;;;;;1.55;1.22;;;;;;;9.15;100.00;100128.86;1751117;80;21560;-57
2023/01/01 07:06:06;;;;;;;2.05;1.27;;;;;;;9.15;100.00;100123.48;1752471;80;21598;-54
2023/01/01 07:08:32;;;;;;;2.20;1.32;;;;;;;9.17;100.00;100119.41;1749065;80;21117;-53
2023/01/01 07:10:59;;;;;;;1.27;1.05;;;;;;;9.19;100.00;100120.20;1752099;80;23242;-54
2023/01/01 07:13:26;;;;;;;2.25;1.92;;;;;;;9.22;100.00;100121.44;1748599;80;21522;-54
2023/01/01 07:15:53;;;;;;;5.42;1.37;;;;;;;9.25;100.00;100132.97;1752841;80;21090;-53
2023/01/01 07:18:20;;;;;;;1.95;1.70;;;;;;;9.27;100.00;100128.39;1751397;80;21054;-53
2023/01/01 07:20:53;;;;;;;1.30;1.20;;;;;;;9.29;100.00;100126.99;1753376;80;21158;-55
2023/01/01 07:23:20;;;;;;;1.60;1.22;;;;;;;9.30;100.00;100137.69;1751036;80;21276;-55
2023/01/01 07:25:48;;;;;;;1.50;1.40;;;;;;;9.30;100.00;100138.16;1747142;80;21623;-56
2023/01/01 07:28:14;;;;;;;3.40;1.15;;;;;;;9.32;100.00;100136.30;1744116;80;21097;-55
2023/01/01 07:30:41;;;;;;;1.47;1.37;;;;;;;9.35;100.00;100142.91;1752426;80;21026;-54
2023/01/01 07:33:11;;;;;;;2.20;1.55;;;;;;;9.38;100.00;100140.09;1751186;80;21046;-54
2023/01/01 07:35:39;;;;;;;2.33;1.35;;;;;;;9.41;100.00;100139.52;1747760;80;21939;-54
2023/01/01 07:38:06;;;;;;;2.25;1.72;;;;;;;9.45;100.00;100133.08;1751864;80;21038;-56
2023/01/01 07:40:33;;;;;;;2.05;1.85;;;;;;;9.49;100.00;100142.80;1751269;80;21100;-54
2023/01/01 07:42:59;;;;;;;5.65;1.60;;;;;;;9.53;100.00;100142.19;1753781;79;21025;-52
2023/01/01 07:45:26;;;;;;;2.62;1.45;;;;;;;9.55;100.00;100141.67;1768184;79;21660;-54
2023/01/01 07:47:53;;;;;;;4.33;1.60;;;;;;;9.60;100.00;100149.12;1771751;79;21827;-54
2023/01/01 07:50:23;;;;;;;1.85;1.30;;;;;;;9.65;100.00;100143.55;1768446;79;21036;-53
2023/01/01 07:52:49;;;;;;;2.12;1.10;;;;;;;9.69;100.00;100143.39;1771059;79;21068;-52
2023/01/01 07:55:17;;;;;;;1.65;1.40;;;;;;;9.75;100.00;100136.42;1751486;80;21574;-52
2023/01/01 07:57:44;;;;;;;2.15;1.70;;;;;;;9.81;100.00;100127.23;1773744;79;22366;-53
2023/01/01 08:00:13;;;;;;;1.92;1.60;;;;;;;9.85;100.00;100135.61;1753475;80;21819;-53
2023/01/01 08:02:39;;;;;;;3.30;1.80;;;;;;;9.91;100.00;100134.48;1748527;81;21045;-52
2023/01/01 08:05:07;;;;;;;4.20;1.65;;;;;;;9.93;100.00;100136.17;1748350;80;21046;-54
2023/01/01 08:07:35;;;;;;;2.62;1.40;;;;;;;9.97;100.00;100133.76;1749583;81;21036;-56
2023/01/01 08:10:03;;;;;;;2.15;1.30;;;;;;;10.01;100.00;100126.45;1769694;79;21042;-53
2023/01/01 08:12:30;;;;;;;1.90;1.70;;;;;;;10.06;100.00;100131.17;1751571;80;21792;-55
2023/01/01 08:14:56;;;;;;;3.12;1.70;;;;;;;10.12;100.00;100129.60;1758247;80;21038;-56
2023/01/01 08:17:22;;;;;;;1.50;1.37;;;;;;;10.17;100.00;100119.52;1751122;80;21143;-55
2023/01/01 08:19:50;;;;;;;1.25;1.07;;;;;;;10.24;100.00;100114.32;1753620;80;21426;-54
2023/01/01 08:22:16;;;;;;;1.90;1.60;;;;;;;10.31;100.00;100114.47;1752004;80;21629;-52
2023/01/01 08:24:43;;;;;;;1.92;1.37;;;;;;;10.36;100.00;100109.80;1752095;80;21786;-53
2023/01/01 08:27:12;;;;;;;1.75;1.40;;;;;;;10.39;100.00;100109.64;1752439;80;21041;-55
2023/01/01 08:29:40;;;;;;;1.42;1.05;;;;;;;10.44;100.00;100122.92;1728891;80;21060;-53
2023/01/01 08:32:07;;;;;;;1.72;1.62;;;;;;;10.47;100.00;100122.31;1753922;80;21514;-56
2023/01/01 08:34:33;;;;;;;2.00;1.30;;;;;;;10.51;100.00;100121.25;1754824;80;21108;-54
2023/01/01 08:37:00;;;;;;;2.10;1.37;;;;;;;10.56;100.00;100114.31;1754665;80;23727;-54
2023/01/01 08:39:26;;;;;;;1.72;1.57;;;;;;;10.60;100.00;100114.14;1749758;80;21057;-58
2023/01/01 08:41:53;;;;;;;3.05;1.30;;;;;;;10.66;100.00;100117.50;1753827;80;21042;-54
2023/01/01 08:44:19;;;;;;;1.85;1.55;;;;;;;10.69;100.00;100121.41;1751409;80;21654;-52
2023/01/01 08:46:46;;;;;;;1.75;1.62;;;;;;;10.72;100.00;100119.95;1752363;80;21092;-54
2023/01/01 08:49:13;;;;;;;1.50;1.20;;;;;;;10.74;100.00;100116.69;1753535;79;21826;-56
2023/01/01 08:51:40;;;;;;;1.65;1.25;;;;;;;10.77;100.00;100119.27;1756853;79;21138;-56
2023/01/01 08:54:07;;;;;;;3.45;1.22;;;;;;;10.79;100.00;100122.78;1757285;80;21653;-56
2023/01/01 08:56:33;;;;;;;2.30;1.20;;;;;;;10.82;100.00;100132.05;1755837;79;21546;-53
2023/01/01 08:59:00;;;;;;;2.87;1.80;;;;;;;10.85;100.00;100122.50;1748970;79;21078;-57
2023/01/01 09:01:26;;;;;;;2.77;1.30;;;;;;;10.87;100.00;100120.62;1757152;80;21905;-56
2023/01/01 09:03:53;;;;;;;2.37;1.25;;;;;;;10.89;100.00;100122.28;1755595;80;21117;-52
2023/01/01 09:06:20;;;;;;;2.00;1.30;;;;;;;10.91;100.00;100118.19;1754613;79;21021;-53
2023/01/01 09:08:46;;;;;;;2.12;1.22;;;;;;;10.94;100.00;100111.33;1755170;80;21374;-56
2023/01/01 09:11:21;;;;;;;1.30;1.00;;;;;;;10.96;100.00;100106.76;1755063;79;21050;-55
2023/01/01 09:13:47;;;;;;;2.00;1.25;;;;;;;11.00;100.00;100102.97;1758893;79;22447;-54
2023/01/01 09:16:14;;;;;;;1.98;1.20;;;;;;;11.04;100.00;100095.17;1759421;80;21695;-55
2023/01/01 09:18:41;;;;;;;1.20;1.10;;;;;;;11.10;100.00;100098.92;1754992;80;21109;-54
2023/01/01 09:21:07;;;;;;;4.12;1.70;;;;;;;11.17;100.00;100102.21;1758290;79;21654;-54
2023/01/01 09:24:27;;;;;;;1.50;1.00;;;;;;;11.24;100.00;100076.27;1772242;79;22625;-54
2023/01/01 09:26:54;;;;;;;2.35;1.70;;;;;;;11.29;100.00;100098.51;1740586;80;21566;-54
2023/01/01 09:29:20;;;;;;;2.00;1.10;;;;;;;11.32;100.00;100102.39;1743601;80;23757;-54
2023/01/01 09:31:48;;;;;;;2.35;1.55;;;;;;;11.35;100.00;100100.03;1741168;80;21534;-57
2023/01/01 09:34:16;;;;;;;1.07;0.85;;;;;;;11.36;100.00;100091.88;1742647;80;21052;-56
2023/01/01 09:36:43;;;;;;;1.25;0.90;;;;;;;11.40;100.00;100102.54;1737359;81;22267;-54
2023/01/01 09:39:13;;;;;;;1.77;1.40;;;;;;;11.41;100.00;100091.66;1743946;81;21134;-54
2023/01/01 09:41:57;;;;;;;2.50;1.10;;;;;;;11.45;100.00;100091.93;1742113;81;22767;-54
2023/01/01 09:44:40;;;;;;;2.15;0.95;;;;;;;11.50;100.00;100087.66;1740199;81;21140;-56
2023/01/01 09:47:27;;;;;;;1.75;1.22;;;;;;;11.52;100.00;100085.77;1738671;81;21783;-56
2023/01/01 09:49:56;;;;;;;1.52;1.40;;;;;;;11.56;100.00;100082.00;1738156;81;21091;-53
2023/01/01 09:52:22;;;;;;;2.10;1.22;;;;;;;11.58;100.00;100086.83;1743120;80;21124;-55
2023/01/01 09:54:58;;;;;;;1.27;1.00;;;;;;;11.58;100.00;100080.96;1739123;81;21834;-55
2023/01/01 09:57:28;;;;;;;1.50;1.00;;;;;;;11.58;100.00;100080.96;1740541;80;21065;-57
2023/01/01 09:59:58;;;;;;;3.17;1.12;;;;;;;11.61;100.00;100089.39;1740256;80;21094;-53
2023/01/01 10:02:45;;;;;;;2.40;1.52;;;;;;;11.65;100.00;100091.02;1739815;80;21144;-54
2023/01/01 10:05:23;;;;;;;1.37;1.27;;;;;;;11.68;100.00;100086.33;1739047;80;21120;-53
2023/01/01 10:08:15;;;;;;;1.50;1.40;;;;;;;11.74;100.00;100083.36;1695884;81;22525;-54
2023/01/01 10:10:54;;;;;;;2.50;1.37;;;;;;;11.81;100.00;100078.58;1739552;80;21163;-54
2023/01/01 10:13:42;;;;;;;1.65;1.10;;;;;;;11.85;100.00;100062.62;1738869;81;21063;-54
2023/01/01 10:16:37;;;;;;;3.15;1.20;;;;;;;11.86;100.00;100063.03;1731910;81;21046;-53
2023/01/01 10:19:07;;;;;;;;;;;;;;;11.89;100.00;100065.59;1717770;81;21076;-52
2023/01/01 10:21:37;;;;;;;1.30;1.07;;;;;;;11.90;100.00;100066.00;1713302;82;22012;-54
2023/01/01 10:24:10;;;;;;;2.72;0.98;;;;;;;11.95;100.00;100070.68;1706947;82;21102;-54
2023/01/01 10:26:37;;;;;;;3.20;1.00;;;;;;;11.95;100.00;100070.68;1699822;82;21086;-57
2023/01/01 10:29:17;;;;;;;1.40;1.00;;;;;;;12.00;100.00;100061.00;1704386;82;21071;-55
2023/01/01 10:31:45;;;;;;;1.40;1.05;;;;;;;12.04;100.00;100060.78;1700886;82;21117;-55
2023/01/01 10:34:24;;;;;;;1.40;1.10;;;;;;;12.10;100.00;100065.00;1700996;82;21858;-55
2023/01/01 10:36:53;;;;;;;1.27;1.10;;;;;;;12.13;100.00;100067.55;1700197;82;21563;-54
2023/01/01 10:39:20;;;;;;;2.60;1.15;;;;;;;12.14;100.00;100069.30;1702629;83;21159;-54
2023/01/01 10:41:47;;;;;;;2.87;1.10;;;;;;;12.14;100.00;100078.75;1662789;84;21185;-54
2023/01/01 10:44:16;;;;;;;1.60;1.05;;;;;;;12.13;100.00;100078.34;1640224;85;21142;-53
2023/01/01 10:46:49;;;;;;;1.32;1.17;;;;;;;12.13;100.00;100078.34;1649605;85;21839;-53
2023/01/01 10:49:16;;;;;;;1.10;1.00;;;;;;;12.13;100.00;100075.17;1646846;85;21090;-57
2023/01/01 10:51:46;;;;;;;0.90;0.80;;;;;;;12.16;100.00;100090.83;1649404;85;21152;-54
2023/01/01 10:54:32;;;;;;;1.10;1.00;;;;;;;12.18;100.00;100084.37;1666972;85;21131;-55
2023/01/01 10:57:01;;;;;;;;;;;;;;;12.21;100.00;100084.23;1662747;85;22406;-54
2023/01/01 10:59:35;;;;;;;2.72;0.98;;;;;;;12.24;100.00;100087.27;1655867;85;21806;-54
2023/01/01 11:02:26;;;;;;;2.17;0.90;;;;;;;12.24;100.00;100086.80;1664894;85;21082;-53
2023/01/01 11:05:02;;;;;;;1.30;1.12;;;;;;;12.25;100.00;100074.18;1649163;85;21069;-52
2023/01/01 11:07:31;;;;;;;1.10;1.00;;;;;;;12.26;100.00;100083.99;1653238;85;21076;-53
2023/01/01 11:10:03;;;;;;;1.10;0.82;;;;;;;12.24;100.00;100085.45;1664879;85;21534;-54
2023/01/01 11:12:35;;;;;;;3.47;1.05;;;;;;;12.26;100.00;100086.22;1666136;84;21913;-52
2023/01/01 11:15:04;;;;;;;1.55;0.90;;;;;;;12.26;100.00;100086.22;1647562;85;21053;-54
2023/01/01 11:17:33;;;;;;;1.40;0.90;;;;;;;12.27;100.00;100085.75;1621552;86;21366;-53
2023/01/01 11:20:00;;;;;;;1.15;0.90;;;;;;;12.28;100.00;100079.41;1649068;85;21109;-53
2023/01/01 11:22:44;;;;;;;1.22;0.90;;;;;;;12.32;100.00;100087.77;1662237;84;21142;-55
2023/01/01 11:25:17;;;;;;;1.62;1.05;;;;;;;12.32;100.00;100087.77;1624882;85;23253;-54
2023/01/01 11:27:44;;;;;;;1.25;0.82;;;;;;;12.35;100.00;100085.77;1659430;85;21068;-54
2023/01/01 11:30:27;;;;;;;1.22;0.80;;;;;;;12.38;100.00;100095.55;1660593;84;21142;-57
2023/01/01 11:32:58;;;;;;;1.55;0.90;;;;;;;12.41;100.00;100088.66;1663508;84;21078;-52
2023/01/01 11:35:30;;;;;;;0.85;0.72;;;;;;;12.43;100.00;100090.77;1637870;86;21074;-54
2023/01/01 11:37:57;;;;;;;1.20;0.90;;;;;;;12.44;100.00;100094.75;1645952;85;22391;-57
2023/01/01 11:40:30;;;;;;;1.07;0.80;;;;;;;12.46;100.00;100098.73;1649432;85;21119;-54
2023/01/01 11:43:01;;;;;;;1.10;1.00;;;;;;;12.44;100.00;100093.88;1649149;85;21082;-55
2023/01/01 11:45:34;;;;;;;1.50;1.05;;;;;;;12.46;100.00;100082.53;1661643;85;21569;-53
2023/01/01 11:48:08;;;;;;;1.30;0.90;;;;;;;12.45;100.00;100084.36;1648354;85;21123;-54